Time;durP1;ratioP1;P1;durP2;ratioP2;P2;SDS_P1;SDS_P2;PMS_P1;PMS_P2;Temp;Humidity;BMP_temperature;BMP_pressure;BME280_temperature;BME280_humidity;BME280_pressure;Samples;Min_cycle;Max_cycle;Signal;HPM_P1;HPM_P2
2022/12/29 00:02:11;;;;;;;9.23;6.63;;;;;;;;;;5025053;28;20049;-77
2022/12/29 00:04:37;;;;;;;7.80;7.00;;;;;;;;;;5013193;28;20105;-77
2022/12/29 00:07:07;;;;;;;7.25;6.28;;;;;;;;;;4997144;28;20050;-77
2022/12/29 00:09:33;;;;;;;7.07;6.38;;;;;;;;;;5011901;28;20096;-77
2022/12/29 00:12:00;;;;;;;8.35;6.60;;;;;;;;;;5000350;28;20413;-77
2022/12/29 00:17:10;;;;;;;7.78;6.65;;;;;;;;;;4964983;28;1104640;-77
2022/12/29 00:36:28;;;;;;;8.40;7.18;;;;;;;;;;4995319;28;20053;-77
2022/12/29 00:44:29;;;;;;;8.88;7.60;;;;;;;;;;5015096;28;20104;-77
2022/12/29 00:46:55;;;;;;;9.15;7.78;;;;;;;;;;5011962;28;20482;-77
2022/12/29 00:49:30;;;;;;;10.43;7.65;;;;;;;;;;5013786;28;20042;-77
2022/12/29 00:52:04;;;;;;;8.95;7.68;;;;;;;;;;5003618;28;20057;-77
2022/12/29 00:54:32;;;;;;;9.50;8.30;;;;;;;;;;4999277;28;20120;-77
2022/12/29 00:56:58;;;;;;;10.93;8.15;;;;;;;;;;5003187;28;20499;-77
2022/12/29 00:59:25;;;;;;;8.27;7.40;;;;;;;;;;5017003;28;20050;-77
2022/12/29 01:01:52;;;;;;;9.60;8.00;;;;;;;;;;5008615;28;20056;-77
2022/12/29 01:04:18;;;;;;;10.43;8.55;;;;;;;;;;5013207;28;20101;-77
2022/12/29 01:06:47;;;;;;;8.68;7.38;;;;;;;;;;5016782;28;20076;-77
2022/12/29 01:12:01;;;;;;;10.05;7.20;;;;;;;;;;5020855;28;20499;-77
2022/12/29 01:14:27;;;;;;;9.90;8.10;;;;;;;;;;4998808;28;20431;-77
2022/12/29 01:16:53;;;;;;;9.18;8.20;;;;;;;;;;4979827;28;20054;-77
2022/12/29 01:19:20;;;;;;;9.63;8.48;;;;;;;;;;5010610;28;20413;-77
2022/12/29 01:21:46;;;;;;;10.30;8.10;;;;;;;;;;5005626;28;20072;-77
2022/12/29 01:24:13;;;;;;;9.32;7.55;;;;;;;;;;5005618;28;20066;-77
2022/12/29 01:26:39;;;;;;;9.82;8.80;;;;;;;;;;5004130;28;20076;-77
2022/12/29 01:29:05;;;;;;;10.93;7.75;;;;;;;;;;5022742;28;20060;-77
2022/12/29 01:31:31;;;;;;;8.55;7.28;;;;;;;;;;5012558;28;20046;-77
2022/12/29 01:33:57;;;;;;;8.45;7.50;;;;;;;;;;5003983;28;20046;-77
2022/12/29 01:36:24;;;;;;;10.85;7.30;;;;;;;;;;5022253;28;20048;-77
2022/12/29 01:38:50;;;;;;;9.13;7.28;;;;;;;;;;5012823;28;20038;-77
2022/12/29 01:41:17;;;;;;;7.88;7.00;;;;;;;;;;5013821;28;20034;-77
2022/12/29 01:43:47;;;;;;;8.43;6.82;;;;;;;;;;5004676;28;20047;-77
2022/12/29 01:46:16;;;;;;;8.68;7.43;;;;;;;;;;4997398;28;20042;-77
2022/12/29 01:48:43;;;;;;;7.82;6.60;;;;;;;;;;4996878;28;20046;-77
2022/12/29 01:51:09;;;;;;;7.85;6.80;;;;;;;;;;5017162;28;20041;-77
2022/12/29 01:53:35;;;;;;;7.68;6.63;;;;;;;;;;5015899;28;20042;-77
2022/12/29 01:56:04;;;;;;;9.45;7.10;;;;;;;;;;5009577;28;20114;-77
2022/12/29 01:58:33;;;;;;;9.55;7.22;;;;;;;;;;5012229;28;20121;-77
2022/12/29 02:00:59;;;;;;;8.57;7.03;;;;;;;;;;5013733;28;20047;-77
2022/12/29 02:03:26;;;;;;;8.65;6.60;;;;;;;;;;4998333;28;20050;-77
2022/12/29 02:06:02;;;;;;;7.75;6.85;;;;;;;;;;5001469;28;20562;-77
2022/12/29 02:08:29;;;;;;;8.73;7.07;;;;;;;;;;5006845;28;20042;-76
2022/12/29 02:10:56;;;;;;;8.95;7.22;;;;;;;;;;5001320;28;20501;-76
2022/12/29 02:13:26;;;;;;;8.02;6.18;;;;;;;;;;5036606;28;20076;-76
2022/12/29 02:16:01;;;;;;;8.30;6.97;;;;;;;;;;5031413;28;20060;-76
2022/12/29 02:18:38;;;;;;;8.50;6.88;;;;;;;;;;4997115;28;20072;-76
2022/12/29 02:21:10;;;;;;;10.15;7.85;;;;;;;;;;5004160;28;20398;-76
2022/12/29 02:23:55;;;;;;;10.40;7.65;;;;;;;;;;4995283;28;20050;-76
2022/12/29 02:26:30;;;;;;;10.38;7.15;;;;;;;;;;5003020;28;20050;-77
2022/12/29 02:28:56;;;;;;;8.95;6.60;;;;;;;;;;4998084;28;20042;-77
2022/12/29 02:31:41;;;;;;;8.23;6.30;;;;;;;;;;5008994;28;20097;-77
2022/12/29 02:34:24;;;;;;;7.63;4.95;;;;;;;;;;4996748;28;20050;-77
2022/12/29 02:37:02;;;;;;;4.20;3.67;;;;;;;;;;5025021;28;20041;-77
2022/12/29 02:39:50;;;;;;;4.65;2.90;;;;;;;;;;5016276;28;20042;-76
2022/12/29 02:42:34;;;;;;;4.70;2.10;;;;;;;;;;5015196;28;20118;-76
2022/12/29 02:45:03;;;;;;;2.22;1.48;;;;;;;;;;5015185;28;20061;-76
2022/12/29 02:47:52;;;;;;;4.90;1.70;;;;;;;;;;5009404;28;20038;-76
2022/12/29 02:50:26;;;;;;;3.50;1.38;;;;;;;;;;4992973;28;20513;-76
2022/12/29 02:52:57;;;;;;;1.52;1.35;;;;;;;;;;4995947;28;20415;-76
2022/12/29 02:55:24;;;;;;;3.92;1.58;;;;;;;;;;4991759;28;20058;-76
2022/12/29 02:58:05;;;;;;;2.42;1.38;;;;;;;;;;5021248;28;20050;-76
2022/12/29 03:00:31;;;;;;;2.67;1.58;;;;;;;;;;4995530;28;20129;-76
2022/12/29 03:03:07;;;;;;;2.47;1.45;;;;;;;;;;4995450;28;20042;-76
2022/12/29 03:05:33;;;;;;;;;;;;;;;;;;5001602;28;20064;-76
2022/12/29 03:08:14;;;;;;;1.70;1.35;;;;;;;;;;5015275;28;20273;-76
2022/12/29 03:10:50;;;;;;;1.40;1.30;;;;;;;;;;5005980;28;20057;-76
2022/12/29 03:16:24;;;;;;;1.90;1.70;;;;;;;;;;4982241;28;20494;-77
2022/12/29 03:18:56;;;;;;;2.38;1.80;;;;;;;;;;4994560;28;20060;-77
2022/12/29 03:24:15;;;;;;;4.65;3.00;;;;;;;;;;5001555;28;20057;-77
2022/12/29 03:26:43;;;;;;;4.32;3.08;;;;;;;;;;4987541;28;20096;-77
2022/12/29 03:29:10;;;;;;;6.45;3.20;;;;;;;;;;5003172;28;20050;-77
2022/12/29 03:31:37;;;;;;;5.28;2.70;;;;;;;;;;4985828;28;20099;-77
2022/12/29 03:34:04;;;;;;;6.80;3.22;;;;;;;;;;5033326;28;20038;-77
2022/12/29 03:36:33;;;;;;;8.05;3.08;;;;;;;;;;5020162;28;20042;-77
2022/12/29 03:39:11;;;;;;;10.13;3.10;;;;;;;;;;5007692;28;20045;-77
2022/12/29 03:41:38;;;;;;;10.10;2.72;;;;;;;;;;4988426;28;20055;-77
2022/12/29 03:44:06;;;;;;;7.65;3.13;;;;;;;;;;4985811;28;20525;-77
2022/12/29 03:46:33;;;;;;;11.55;2.70;;;;;;;;;;4995019;28;20444;-77
2022/12/29 03:48:59;;;;;;;10.20;2.85;;;;;;;;;;4990610;28;20062;-77
2022/12/29 03:51:25;;;;;;;9.57;2.70;;;;;;;;;;5009499;28;20129;-77
2022/12/29 03:53:51;;;;;;;7.13;2.88;;;;;;;;;;4994673;28;20187;-77
2022/12/29 03:56:17;;;;;;;7.50;2.22;;;;;;;;;;5021561;28;20049;-77
2022/12/29 03:58:43;;;;;;;6.47;2.78;;;;;;;;;;4987234;28;20495;-77
2022/12/29 04:01:09;;;;;;;9.30;2.83;;;;;;;;;;5005032;28;20058;-77
2022/12/29 04:03:35;;;;;;;9.65;2.75;;;;;;;;;;5006561;28;20487;-77
2022/12/29 04:06:01;;;;;;;5.97;2.50;;;;;;;;;;4990004;28;20104;-77
2022/12/29 04:08:27;;;;;;;7.15;2.33;;;;;;;;;;5011036;28;20046;-77
2022/12/29 04:10:53;;;;;;;12.07;2.30;;;;;;;;;;5022570;28;20044;-77
2022/12/29 04:13:19;;;;;;;9.05;2.42;;;;;;;;;;4996078;28;20041;-77
2022/12/29 04:15:46;;;;;;;5.78;2.22;;;;;;;;;;5012109;28;20137;-77
2022/12/29 04:18:12;;;;;;;5.68;2.00;;;;;;;;;;4981041;28;20506;-77
2022/12/29 04:23:23;;;;;;;6.85;2.40;;;;;;;;;;5008004;28;20049;-77
2022/12/29 04:25:49;;;;;;;6.53;2.50;;;;;;;;;;4980915;28;20081;-77
2022/12/29 04:28:16;;;;;;;6.15;2.35;;;;;;;;;;4982715;28;20053;-77
2022/12/29 04:30:45;;;;;;;3.72;2.13;;;;;;;;;;4995429;28;20042;-77
2022/12/29 04:33:11;;;;;;;6.90;2.20;;;;;;;;;;5007271;28;20151;-77
2022/12/29 04:35:37;;;;;;;9.73;2.67;;;;;;;;;;5012754;28;20037;-77
2022/12/29 04:38:04;;;;;;;9.75;2.97;;;;;;;;;;5004027;28;20050;-77
2022/12/29 04:40:33;;;;;;;6.80;2.70;;;;;;;;;;4999124;28;20038;-77
2022/12/29 04:42:59;;;;;;;6.07;2.28;;;;;;;;;;4997552;28;20041;-77
2022/12/29 04:45:25;;;;;;;11.20;2.65;;;;;;;;;;4998339;28;20041;-77
2022/12/29 04:47:51;;;;;;;10.60;2.90;;;;;;;;;;5006099;28;20094;-77
2022/12/29 04:50:17;;;;;;;10.43;3.03;;;;;;;;;;5023436;28;20085;-77
2022/12/29 04:52:43;;;;;;;15.30;3.53;;;;;;;;;;4995235;28;20061;-77
2022/12/29 04:55:09;;;;;;;17.05;3.30;;;;;;;;;;4976942;28;20081;-77
2022/12/29 04:57:35;;;;;;;13.65;4.05;;;;;;;;;;4981637;28;20050;-77
2022/12/29 05:00:01;;;;;;;14.65;3.50;;;;;;;;;;4993904;28;20161;-77
2022/12/29 05:02:27;;;;;;;16.20;4.93;;;;;;;;;;4996654;28;20489;-77
2022/12/29 05:04:53;;;;;;;15.52;3.45;;;;;;;;;;4983384;28;20117;-77
2022/12/29 05:07:19;;;;;;;14.85;3.50;;;;;;;;;;5022202;28;20100;-77
2022/12/29 05:09:45;;;;;;;20.92;4.65;;;;;;;;;;5002412;28;20081;-77
2022/12/29 05:12:11;;;;;;;15.73;4.03;;;;;;;;;;5002323;28;20121;-77
2022/12/29 05:14:37;;;;;;;18.80;4.13;;;;;;;;;;4975938;28;20047;-77
2022/12/29 05:17:03;;;;;;;16.30;4.00;;;;;;;;;;4994163;28;20086;-77
2022/12/29 05:19:30;;;;;;;18.73;4.00;;;;;;;;;;4975281;28;20108;-77
2022/12/29 05:21:56;;;;;;;17.63;3.92;;;;;;;;;;4999185;28;20426;-77
2022/12/29 05:24:25;;;;;;;16.67;3.72;;;;;;;;;;4999068;28;20434;-77
2022/12/29 05:26:51;;;;;;;18.17;3.90;;;;;;;;;;5001057;28;20034;-77
2022/12/29 05:29:17;;;;;;;20.20;4.63;;;;;;;;;;5013289;28;20139;-77
2022/12/29 05:31:43;;;;;;;19.83;3.97;;;;;;;;;;5005172;28;20570;-77
2022/12/29 05:34:11;;;;;;;17.85;3.90;;;;;;;;;;5001041;28;20085;-77
2022/12/29 05:36:37;;;;;;;18.70;3.72;;;;;;;;;;4999089;28;20046;-77
2022/12/29 05:39:03;;;;;;;17.85;4.07;;;;;;;;;;5004196;28;20075;-77
2022/12/29 05:41:29;;;;;;;19.98;3.67;;;;;;;;;;4998154;28;20418;-77
2022/12/29 05:43:55;;;;;;;15.48;3.65;;;;;;;;;;5010106;28;20536;-77
2022/12/29 05:46:21;;;;;;;13.32;3.67;;;;;;;;;;4996163;28;20046;-77
2022/12/29 05:48:48;;;;;;;16.38;3.53;;;;;;;;;;4995142;28;20037;-77
2022/12/29 05:51:14;;;;;;;16.95;3.53;;;;;;;;;;5009507;28;20045;-77
2022/12/29 05:53:40;;;;;;;16.40;4.05;;;;;;;;;;5006981;28;20124;-77
2022/12/29 05:56:06;;;;;;;13.07;3.08;;;;;;;;;;4993669;28;20038;-77
2022/12/29 05:58:32;;;;;;;16.33;3.50;;;;;;;;;;5004269;28;20046;-77
2022/12/29 06:00:58;;;;;;;16.58;3.75;;;;;;;;;;5012874;28;20034;-77
2022/12/29 06:03:24;;;;;;;15.20;3.75;;;;;;;;;;4985294;28;20061;-77
2022/12/29 06:05:50;;;;;;;15.07;3.42;;;;;;;;;;5000784;28;20057;-77
2022/12/29 06:08:16;;;;;;;15.73;3.45;;;;;;;;;;5008067;28;20038;-77
2022/12/29 06:10:42;;;;;;;11.50;3.42;;;;;;;;;;4978649;28;20038;-77
2022/12/29 06:13:08;;;;;;;16.08;3.50;;;;;;;;;;4998734;28;20114;-77
2022/12/29 06:15:35;;;;;;;17.02;3.40;;;;;;;;;;4997206;28;20050;-77
2022/12/29 06:18:01;;;;;;;16.45;3.63;;;;;;;;;;5001695;28;20038;-77
2022/12/29 06:20:27;;;;;;;15.82;3.40;;;;;;;;;;5008812;28;20085;-77
2022/12/29 06:22:53;;;;;;;15.48;3.15;;;;;;;;;;5002217;28;20487;-77
2022/12/29 06:25:19;;;;;;;18.20;3.33;;;;;;;;;;4996700;28;20515;-77
2022/12/29 06:27:45;;;;;;;13.57;3.85;;;;;;;;;;5013847;28;20053;-77
2022/12/29 06:30:12;;;;;;;14.55;4.05;;;;;;;;;;5010565;28;20046;-77
2022/12/29 06:32:38;;;;;;;14.02;3.67;;;;;;;;;;5012494;28;20133;-77
2022/12/29 06:35:05;;;;;;;17.45;4.57;;;;;;;;;;5004447;28;20061;-77
2022/12/29 06:37:32;;;;;;;14.93;3.92;;;;;;;;;;5001527;28;20047;-77
2022/12/29 06:39:58;;;;;;;18.55;4.10;;;;;;;;;;4996653;28;20450;-77
2022/12/29 06:42:24;;;;;;;16.75;3.85;;;;;;;;;;4996917;28;20126;-77
2022/12/29 06:44:50;;;;;;;19.85;5.13;;;;;;;;;;4996143;28;20050;-77
2022/12/29 06:47:16;;;;;;;23.10;4.70;;;;;;;;;;5002417;28;20070;-76
2022/12/29 06:49:42;;;;;;;21.83;4.88;;;;;;;;;;5000169;28;20113;-76
2022/12/29 06:52:08;;;;;;;20.55;4.03;;;;;;;;;;5012906;28;20676;-77
2022/12/29 06:54:34;;;;;;;17.92;4.00;;;;;;;;;;5006233;28;20486;-77
2022/12/29 06:57:00;;;;;;;19.90;4.65;;;;;;;;;;5015880;28;20073;-77
2022/12/29 06:59:26;;;;;;;14.30;4.35;;;;;;;;;;4996537;28;20043;-77
2022/12/29 07:01:53;;;;;;;19.13;4.68;;;;;;;;;;5001419;28;20080;-77
2022/12/29 07:04:19;;;;;;;16.10;4.22;;;;;;;;;;5007870;28;20038;-77
2022/12/29 07:06:45;;;;;;;21.75;4.68;;;;;;;;;;5021817;28;20088;-77
2022/12/29 07:09:11;;;;;;;24.02;4.93;;;;;;;;;;5034405;28;20045;-77
2022/12/29 07:11:37;;;;;;;17.90;4.75;;;;;;;;;;5025357;28;20064;-77
2022/12/29 07:14:03;;;;;;;14.93;4.15;;;;;;;;;;5002869;28;20047;-77
2022/12/29 07:16:30;;;;;;;13.60;4.28;;;;;;;;;;5006448;28;20046;-77
2022/12/29 07:18:57;;;;;;;24.95;5.05;;;;;;;;;;5009923;28;20038;-77
2022/12/29 07:21:23;;;;;;;18.33;4.75;;;;;;;;;;5027157;28;20048;-77
2022/12/29 07:23:52;;;;;;;21.55;5.15;;;;;;;;;;5017174;28;20128;-77
2022/12/29 07:26:18;;;;;;;17.27;4.20;;;;;;;;;;5034518;28;20474;-77
2022/12/29 07:28:44;;;;;;;17.45;3.60;;;;;;;;;;5027658;28;20517;-77
2022/12/29 07:31:14;;;;;;;20.20;4.20;;;;;;;;;;5020974;28;20563;-77
2022/12/29 07:33:40;;;;;;;17.42;4.05;;;;;;;;;;4998573;28;20069;-77
2022/12/29 07:36:07;;;;;;;19.73;4.82;;;;;;;;;;5010450;28;20038;-77
2022/12/29 07:38:33;;;;;;;12.98;4.13;;;;;;;;;;5014591;28;20050;-77
2022/12/29 07:40:59;;;;;;;20.85;4.72;;;;;;;;;;5014222;28;20056;-77
2022/12/29 07:43:25;;;;;;;29.27;5.18;;;;;;;;;;5013876;28;20453;-77
2022/12/29 07:45:51;;;;;;;21.10;4.90;;;;;;;;;;5014333;28;20034;-78
2022/12/29 07:48:17;;;;;;;19.23;4.32;;;;;;;;;;5014499;28;20390;-77
2022/12/29 07:50:44;;;;;;;18.60;5.00;;;;;;;;;;5014764;28;20050;-78
2022/12/29 07:53:10;;;;;;;26.50;4.45;;;;;;;;;;4997084;28;20116;-78
2022/12/29 07:55:36;;;;;;;17.20;4.40;;;;;;;;;;5014663;28;20049;-78
2022/12/29 07:58:02;;;;;;;20.17;3.95;;;;;;;;;;5014348;28;20048;-78
2022/12/29 08:00:28;;;;;;;22.10;3.90;;;;;;;;;;5013923;28;20037;-77
2022/12/29 08:02:54;;;;;;;20.05;4.78;;;;;;;;;;5005646;28;20051;-78
2022/12/29 08:05:20;;;;;;;20.00;4.25;;;;;;;;;;4994463;28;20061;-78
2022/12/29 08:07:46;;;;;;;22.35;4.40;;;;;;;;;;4994622;28;20046;-79
2022/12/29 08:10:12;;;;;;;14.77;4.18;;;;;;;;;;4994976;28;20051;-79
2022/12/29 08:12:39;;;;;;;19.42;4.95;;;;;;;;;;5013671;28;20487;-79
2022/12/29 08:15:06;;;;;;;24.80;4.55;;;;;;;;;;4997024;28;20042;-79
2022/12/29 08:17:32;;;;;;;20.92;5.18;;;;;;;;;;5013258;28;20056;-79
2022/12/29 08:20:01;;;;;;;17.85;4.00;;;;;;;;;;5014570;28;20046;-79
2022/12/29 08:22:27;;;;;;;22.15;4.95;;;;;;;;;;5013302;28;20041;-78
2022/12/29 08:24:53;;;;;;;20.25;4.63;;;;;;;;;;5013511;28;20057;-78
2022/12/29 08:27:19;;;;;;;25.95;4.22;;;;;;;;;;5014145;28;20041;-78
2022/12/29 08:29:45;;;;;;;17.52;4.00;;;;;;;;;;5011423;28;20041;-78
2022/12/29 08:32:12;;;;;;;23.70;5.40;;;;;;;;;;4991716;28;20086;-78
2022/12/29 08:34:38;;;;;;;25.42;5.85;;;;;;;;;;5014262;28;20093;-78
2022/12/29 08:37:04;;;;;;;26.90;5.35;;;;;;;;;;5016827;28;20042;-77
2022/12/29 08:39:30;;;;;;;23.63;4.70;;;;;;;;;;4997750;28;20069;-80
2022/12/29 08:41:59;;;;;;;19.17;4.45;;;;;;;;;;5002421;28;20070;-80
2022/12/29 08:44:25;;;;;;;18.38;4.85;;;;;;;;;;5016288;28;20390;-80
2022/12/29 08:46:51;;;;;;;17.67;4.63;;;;;;;;;;4988806;28;20410;-77
2022/12/29 08:49:17;;;;;;;28.40;5.22;;;;;;;;;;5013195;28;20515;-76
2022/12/29 08:51:43;;;;;;;20.85;5.15;;;;;;;;;;5024781;28;20116;-77
2022/12/29 08:54:09;;;;;;;23.92;5.70;;;;;;;;;;5013337;28;20063;-78
2022/12/29 08:56:36;;;;;;;24.20;5.97;;;;;;;;;;5013585;28;20038;-77
2022/12/29 08:59:02;;;;;;;26.23;5.30;;;;;;;;;;5010013;28;20158;-77
2022/12/29 09:01:28;;;;;;;22.55;4.78;;;;;;;;;;5012788;28;20049;-77
2022/12/29 09:03:54;;;;;;;20.70;4.63;;;;;;;;;;5011659;28;20053;-77
2022/12/29 09:06:21;;;;;;;20.17;4.45;;;;;;;;;;5012593;28;20394;-77
2022/12/29 09:08:47;;;;;;;23.73;5.32;;;;;;;;;;5000028;28;20053;-77
2022/12/29 09:11:13;;;;;;;22.45;4.63;;;;;;;;;;4985874;28;20046;-77
2022/12/29 09:13:39;;;;;;;22.60;4.80;;;;;;;;;;5006805;28;20042;-77
2022/12/29 09:16:05;;;;;;;19.02;4.38;;;;;;;;;;5008594;28;20046;-77
2022/12/29 09:18:31;;;;;;;21.65;4.63;;;;;;;;;;5012175;28;20053;-77
2022/12/29 09:20:58;;;;;;;24.90;4.88;;;;;;;;;;5012778;28;20050;-81
2022/12/29 09:23:24;;;;;;;23.45;5.38;;;;;;;;;;5002854;28;20054;-78
2022/12/29 09:25:50;;;;;;;21.48;4.97;;;;;;;;;;5018073;28;20404;-78
2022/12/29 09:28:16;;;;;;;19.23;5.00;;;;;;;;;;5005050;28;20533;-78
2022/12/29 09:30:42;;;;;;;27.83;5.95;;;;;;;;;;5011834;28;20129;-77
2022/12/29 09:33:08;;;;;;;27.23;6.32;;;;;;;;;;5012555;28;20132;-77
2022/12/29 09:35:34;;;;;;;27.75;6.53;;;;;;;;;;5006798;28;20418;-77
2022/12/29 09:38:00;;;;;;;28.55;6.22;;;;;;;;;;5011721;28;20516;-77
2022/12/29 09:40:31;;;;;;;27.48;5.35;;;;;;;;;;4998472;28;20042;-77
2022/12/29 09:43:03;;;;;;;25.58;5.18;;;;;;;;;;5013583;28;20048;-77
2022/12/29 09:45:41;;;;;;;23.05;5.38;;;;;;;;;;5007125;28;20046;-77
2022/12/29 09:48:12;;;;;;;26.02;5.70;;;;;;;;;;5015586;28;20042;-77
2022/12/29 09:50:39;;;;;;;22.25;5.30;;;;;;;;;;5016627;28;20063;-77
2022/12/29 09:53:05;;;;;;;24.30;5.25;;;;;;;;;;5016515;28;20453;-78
2022/12/29 09:55:35;;;;;;;23.83;5.88;;;;;;;;;;5014429;28;20509;-77
2022/12/29 09:58:05;;;;;;;20.02;5.50;;;;;;;;;;5016277;28;20173;-78
2022/12/29 10:00:39;;;;;;;16.88;4.63;;;;;;;;;;5016833;28;20046;-77
2022/12/29 10:03:15;;;;;;;13.70;4.32;;;;;;;;;;5000061;28;20044;-77
2022/12/29 10:05:59;;;;;;;16.33;3.72;;;;;;;;;;5013075;28;20057;-78
2022/12/29 10:08:34;;;;;;;12.60;3.78;;;;;;;;;;5016118;28;20451;-78
2022/12/29 10:11:09;;;;;;;13.00;3.45;;;;;;;;;;5015980;28;20101;-78
2022/12/29 10:13:35;;;;;;;16.02;4.57;;;;;;;;;;5016454;28;20060;-77
2022/12/29 10:16:01;;;;;;;17.23;4.40;;;;;;;;;;5015456;28;20113;-77
2022/12/29 10:18:27;;;;;;;15.88;5.05;;;;;;;;;;5017312;28;20058;-81
2022/12/29 10:20:55;;;;;;;15.48;4.60;;;;;;;;;;5016500;28;20053;-80
2022/12/29 10:23:40;;;;;;;14.88;4.03;;;;;;;;;;5016007;28;20045;-79
2022/12/29 10:26:13;;;;;;;23.13;5.50;;;;;;;;;;5008509;28;20054;-78
2022/12/29 10:28:40;;;;;;;30.60;5.50;;;;;;;;;;5022113;28;20458;-78
2022/12/29 10:31:12;;;;;;;23.10;5.43;;;;;;;;;;5019730;28;20077;-78
2022/12/29 10:33:41;;;;;;;27.52;6.10;;;;;;;;;;5007704;28;20041;-79
2022/12/29 10:36:14;;;;;;;21.48;4.80;;;;;;;;;;5004975;28;20041;-78
2022/12/29 10:39:00;;;;;;;28.30;5.90;;;;;;;;;;5003691;28;20060;-78
2022/12/29 10:41:29;;;;;;;20.70;4.65;;;;;;;;;;4984241;28;20057;-78
2022/12/29 10:43:57;;;;;;;17.90;4.47;;;;;;;;;;5012728;28;20041;-78
2022/12/29 10:46:29;;;;;;;25.05;5.15;;;;;;;;;;5010371;28;20055;-78
2022/12/29 10:48:55;;;;;;;21.75;5.13;;;;;;;;;;4996152;28;20038;-77
2022/12/29 10:51:22;;;;;;;23.00;5.70;;;;;;;;;;5009317;28;20037;-79
2022/12/29 10:53:52;;;;;;;23.13;4.80;;;;;;;;;;5006834;28;20042;-78
2022/12/29 10:56:25;;;;;;;19.15;5.15;;;;;;;;;;4997600;28;20103;-78
2022/12/29 10:58:51;;;;;;;20.30;4.88;;;;;;;;;;5015101;28;20425;-78
2022/12/29 11:01:20;;;;;;;21.70;5.10;;;;;;;;;;5015547;28;20052;-78
2022/12/29 11:03:54;;;;;;;24.33;4.80;;;;;;;;;;5015095;28;20498;-78
2022/12/29 11:06:27;;;;;;;21.88;4.90;;;;;;;;;;4995921;28;20096;-79
2022/12/29 11:08:56;;;;;;;22.17;5.10;;;;;;;;;;4999305;28;20043;-79
2022/12/29 11:11:23;;;;;;;20.80;4.43;;;;;;;;;;5014855;28;20049;-78
2022/12/29 11:13:51;;;;;;;14.63;4.95;;;;;;;;;;5003360;28;20053;-78
2022/12/29 11:16:34;;;;;;;23.55;4.18;;;;;;;;;;4995385;28;20092;-78
2022/12/29 11:19:01;;;;;;;14.50;4.03;;;;;;;;;;5000193;28;20096;-79
2022/12/29 11:21:30;;;;;;;14.38;3.72;;;;;;;;;;5015243;28;20093;-79
2022/12/29 11:24:16;;;;;;;14.55;3.63;;;;;;;;;;4997591;28;20085;-79
2022/12/29 11:26:44;;;;;;;13.20;3.40;;;;;;;;;;5015331;28;20042;-79
2022/12/29 11:29:16;;;;;;;14.20;3.15;;;;;;;;;;5015367;28;20125;-79
2022/12/29 11:31:50;;;;;;;12.32;3.30;;;;;;;;;;5015374;28;20409;-80
2022/12/29 11:34:27;;;;;;;10.80;3.00;;;;;;;;;;4999091;28;20042;-82
2022/12/29 11:36:58;;;;;;;11.48;3.03;;;;;;;;;;5015516;28;20053;-77
2022/12/29 11:39:33;;;;;;;8.65;2.50;;;;;;;;;;5014396;28;20034;-77
2022/12/29 11:42:02;;;;;;;4.97;2.20;;;;;;;;;;5014433;28;20125;-77
2022/12/29 11:44:31;;;;;;;7.78;2.70;;;;;;;;;;5014558;28;20402;-78
2022/12/29 11:46:57;;;;;;;7.38;2.28;;;;;;;;;;5014277;28;20482;-78
2022/12/29 11:49:25;;;;;;;9.77;2.70;;;;;;;;;;5012808;28;20050;-78
2022/12/29 11:51:55;;;;;;;7.35;2.38;;;;;;;;;;5012635;28;20084;-78
2022/12/29 11:54:30;;;;;;;7.53;2.33;;;;;;;;;;5014764;28;20235;-78
2022/12/29 11:56:56;;;;;;;10.00;2.30;;;;;;;;;;5015883;28;20046;-78
2022/12/29 11:59:34;;;;;;;9.95;2.75;;;;;;;;;;5019224;28;20487;-78
2022/12/29 12:02:01;;;;;;;9.32;2.50;;;;;;;;;;5018307;28;20125;-78
2022/12/29 12:04:29;;;;;;;10.73;2.70;;;;;;;;;;5014647;28;20042;-78
2022/12/29 12:07:07;;;;;;;10.73;2.58;;;;;;;;;;5013654;28;20490;-78
2022/12/29 12:09:45;;;;;;;8.73;2.53;;;;;;;;;;4994470;28;20050;-78
2022/12/29 12:12:21;;;;;;;10.82;3.10;;;;;;;;;;4994257;28;20054;-78
2022/12/29 12:14:53;;;;;;;8.25;2.13;;;;;;;;;;4994325;28;20101;-78
2022/12/29 12:17:23;;;;;;;8.77;2.50;;;;;;;;;;4993808;28;20539;-78
2022/12/29 12:20:05;;;;;;;7.00;2.38;;;;;;;;;;4993947;28;20053;-78
2022/12/29 12:22:34;;;;;;;9.60;2.78;;;;;;;;;;5014862;28;20141;-78
2022/12/29 12:25:05;;;;;;;11.85;3.53;;;;;;;;;;5013968;28;20091;-78
2022/12/29 12:27:40;;;;;;;7.00;2.33;;;;;;;;;;5013614;28;20553;-78
2022/12/29 12:30:14;;;;;;;10.63;2.55;;;;;;;;;;5014370;28;20049;-78
2022/12/29 12:32:44;;;;;;;7.55;2.70;;;;;;;;;;5013476;28;20129;-78
2022/12/29 12:35:16;;;;;;;13.00;3.28;;;;;;;;;;5010751;28;20530;-78
2022/12/29 12:38:02;;;;;;;11.20;2.90;;;;;;;;;;5012695;28;20065;-78
2022/12/29 12:40:38;;;;;;;7.82;2.60;;;;;;;;;;4985331;28;20053;-78
2022/12/29 12:43:18;;;;;;;11.65;2.97;;;;;;;;;;5013560;28;20104;-78
2022/12/29 12:45:44;;;;;;;10.07;3.17;;;;;;;;;;4996352;28;20133;-78
2022/12/29 12:48:23;;;;;;;12.38;3.00;;;;;;;;;;5013793;28;20084;-78
2022/12/29 12:50:54;;;;;;;10.70;3.03;;;;;;;;;;5013949;28;20037;-78
2022/12/29 12:53:26;;;;;;;10.07;2.60;;;;;;;;;;5015669;28;20045;-78
2022/12/29 12:56:15;;;;;;;8.35;2.40;;;;;;;;;;5014938;28;20458;-78
2022/12/29 12:58:49;;;;;;;8.85;2.92;;;;;;;;;;4993711;28;20050;-78
2022/12/29 13:01:28;;;;;;;12.02;2.70;;;;;;;;;;4957587;28;20259;-78
2022/12/29 13:04:07;;;;;;;9.05;2.83;;;;;;;;;;4975230;28;20066;-78
2022/12/29 13:06:33;;;;;;;13.77;2.60;;;;;;;;;;5005910;28;20053;-78
2022/12/29 13:09:31;;;;;;;13.88;3.55;;;;;;;;;;4996942;28;20058;-78
2022/12/29 13:12:17;;;;;;;8.60;2.95;;;;;;;;;;4944459;28;20055;-79
2022/12/29 13:14:49;;;;;;;12.10;2.60;;;;;;;;;;4991497;28;20057;-81
2022/12/29 13:17:15;;;;;;;10.13;2.92;;;;;;;;;;4989256;28;20130;-84
2022/12/29 13:19:50;;;;;;;9.90;2.67;;;;;;;;;;4997727;28;20531;-79
2022/12/29 13:22:27;;;;;;;7.35;2.33;;;;;;;;;;4981394;28;20054;-79
2022/12/29 13:25:02;;;;;;;6.63;2.33;;;;;;;;;;4997605;28;20042;-79
2022/12/29 13:27:33;;;;;;;13.07;2.47;;;;;;;;;;4996191;28;20070;-79
2022/12/29 13:30:09;;;;;;;8.35;2.50;;;;;;;;;;4981326;28;20066;-79
2022/12/29 13:32:37;;;;;;;8.60;2.50;;;;;;;;;;4997041;28;20145;-79
2022/12/29 13:35:03;;;;;;;8.20;2.25;;;;;;;;;;5002483;28;20069;-79
2022/12/29 13:37:32;;;;;;;17.23;3.38;;;;;;;;;;5001103;28;20041;-79
2022/12/29 13:39:59;;;;;;;10.27;2.60;;;;;;;;;;5001843;28;20096;-79
2022/12/29 13:42:26;;;;;;;10.57;2.97;;;;;;;;;;5000618;28;20046;-79
2022/12/29 13:45:11;;;;;;;7.82;2.75;;;;;;;;;;5018493;28;20053;-79
2022/12/29 13:47:42;;;;;;;7.00;2.50;;;;;;;;;;5017729;28;20046;-79
2022/12/29 13:50:17;;;;;;;10.10;2.80;;;;;;;;;;4980713;28;20895;-79
2022/12/29 13:53:01;;;;;;;10.38;3.17;;;;;;;;;;5001388;28;20100;-79
2022/12/29 13:55:30;;;;;;;10.05;2.67;;;;;;;;;;4999666;28;20058;-79
2022/12/29 13:58:19;;;;;;;15.35;2.92;;;;;;;;;;5017713;28;20078;-79
2022/12/29 14:01:09;;;;;;;8.70;2.60;;;;;;;;;;4993524;28;20058;-79
2022/12/29 14:03:54;;;;;;;8.85;2.83;;;;;;;;;;5007434;28;20061;-79
2022/12/29 14:06:24;;;;;;;10.80;2.60;;;;;;;;;;4992097;28;20614;-79
2022/12/29 14:09:13;;;;;;;8.45;2.60;;;;;;;;;;5025201;28;20125;-81
2022/12/29 14:11:40;;;;;;;9.40;2.50;;;;;;;;;;4941471;29;20522;-77
2022/12/29 14:14:14;;;;;;;10.75;3.15;;;;;;;;;;4961268;28;20195;-78
2022/12/29 14:16:42;;;;;;;10.70;2.90;;;;;;;;;;4959965;28;20533;-77
2022/12/29 14:19:11;;;;;;;11.48;3.35;;;;;;;;;;4968374;28;20090;-77
2022/12/29 14:21:37;;;;;;;10.80;3.05;;;;;;;;;;4957876;28;20051;-77
2022/12/29 14:24:22;;;;;;;15.43;2.90;;;;;;;;;;4955637;29;20039;-77
2022/12/29 14:26:48;;;;;;;8.18;2.97;;;;;;;;;;4958697;28;20139;-77
2022/12/29 14:29:26;;;;;;;7.85;2.35;;;;;;;;;;4951596;29;20064;-77
2022/12/29 14:31:52;;;;;;;13.10;2.92;;;;;;;;;;4952811;29;20118;-77
2022/12/29 14:34:18;;;;;;;11.98;3.33;;;;;;;;;;4955632;29;20055;-77
2022/12/29 14:36:55;;;;;;;12.85;3.05;;;;;;;;;;4959084;28;20051;-77
2022/12/29 14:39:35;;;;;;;10.40;2.72;;;;;;;;;;4967009;28;20050;-78
2022/12/29 14:42:04;;;;;;;11.27;3.60;;;;;;;;;;4947943;29;20060;-81
2022/12/29 14:44:30;;;;;;;11.48;2.63;;;;;;;;;;4949661;28;20122;-77
2022/12/29 14:46:56;;;;;;;11.85;4.03;;;;;;;;;;4956389;28;20524;-78
2022/12/29 14:49:25;;;;;;;13.43;3.55;;;;;;;;;;5007382;28;20061;-78
2022/12/29 14:51:55;;;;;;;11.00;2.95;;;;;;;;;;5020730;28;20044;-77
2022/12/29 14:54:41;;;;;;;8.23;2.90;;;;;;;;;;5010961;28;20041;-79
2022/12/29 14:57:09;;;;;;;7.70;3.13;;;;;;;;;;5007449;28;20041;-76
2022/12/29 14:59:35;;;;;;;9.75;3.20;;;;;;;;;;4997627;28;20390;-77
2022/12/29 15:02:03;;;;;;;8.68;2.90;;;;;;;;;;5015242;28;20060;-77
2022/12/29 15:04:33;;;;;;;9.85;2.72;;;;;;;;;;5019573;28;20045;-77
2022/12/29 15:07:03;;;;;;;12.30;3.63;;;;;;;;;;5002257;28;20379;-78
2022/12/29 15:09:36;;;;;;;9.93;3.67;;;;;;;;;;5015027;28;20121;-79
2022/12/29 15:12:05;;;;;;;10.13;3.38;;;;;;;;;;5014371;28;20049;-80
2022/12/29 15:14:31;;;;;;;10.13;2.78;;;;;;;;;;4983543;28;20411;-78
2022/12/29 15:16:57;;;;;;;10.32;2.63;;;;;;;;;;4995946;28;20101;-77
2022/12/29 15:19:24;;;;;;;9.43;2.60;;;;;;;;;;5008005;28;20602;-77
2022/12/29 15:21:51;;;;;;;14.35;3.33;;;;;;;;;;5011525;28;20125;-77
2022/12/29 15:24:17;;;;;;;11.70;2.85;;;;;;;;;;5012692;28;20093;-77
2022/12/29 15:26:46;;;;;;;9.40;2.40;;;;;;;;;;4994617;28;20133;-77